createdAt,value
2023-03-20T00:02:34.583Z,7.78
2023-03-20T00:07:38.065Z,8.57
2023-03-20T00:12:41.450Z,10.52
2023-03-20T00:17:50.753Z,7.25
2023-03-20T00:22:54.709Z,9.50
2023-03-20T00:27:59.889Z,8.75
2023-03-20T00:33:07.060Z,8.35
2023-03-20T00:38:15.158Z,7.38
2023-03-20T01:29:32.059Z,7.78
2023-03-20T02:44:15.837Z,7.85
2023-03-20T02:49:37.122Z,6.07
2023-03-20T02:54:50.571Z,6.82
2023-03-20T03:00:05.345Z,4.88
2023-03-20T03:05:14.679Z,5.35
2023-03-20T03:10:22.824Z,7.38
2023-03-20T03:15:35.215Z,5.47
2023-03-20T04:16:25.410Z,5.00
2023-03-20T04:21:36.378Z,4.93
2023-03-20T05:22:34.157Z,6.43
2023-03-20T05:27:39.929Z,6.53
2023-03-20T05:32:45.186Z,9.55
2023-03-20T05:37:53.371Z,7.22
2023-03-20T05:43:00.647Z,6.28
2023-03-20T05:48:05.859Z,6.90
2023-03-20T05:58:20.259Z,4.75
2023-03-20T06:03:25.664Z,4.72
2023-03-20T06:08:32.609Z,5.25
2023-03-20T06:13:43.058Z,5.20
2023-03-20T06:18:49.778Z,4.95
2023-03-20T06:23:56.996Z,5.13
2023-03-20T06:29:12.305Z,5.18
2023-03-20T06:34:20.262Z,3.95
2023-03-20T06:39:30.928Z,6.45
2023-03-20T06:44:37.523Z,4.05
2023-03-20T06:49:59.696Z,4.28
2023-03-20T06:55:06.872Z,4.00
2023-03-20T07:00:16.838Z,3.80
2023-03-20T07:05:31.313Z,4.35
2023-03-20T07:10:38.257Z,3.70
2023-03-20T07:16:02.993Z,3.92
2023-03-20T07:21:38.826Z,5.30
2023-03-20T07:26:42.990Z,3.97
2023-03-20T07:31:53.159Z,3.35
2023-03-20T07:36:58.007Z,3.25
2023-03-20T07:42:19.728Z,4.03
2023-03-20T07:47:48.766Z,3.72
2023-03-20T07:52:55.421Z,2.92
2023-03-20T07:58:22.895Z,3.30
2023-03-20T08:03:33.693Z,2.75
2023-03-20T08:08:45.716Z,5.78
2023-03-20T11:04:05.242Z,3.25
2023-03-20T11:09:30.383Z,4.15
2023-03-20T13:20:22.219Z,2.53
2023-03-20T13:26:00.702Z,3.13
2023-03-20T13:31:21.023Z,3.55
2023-03-20T13:36:41.567Z,3.47
2023-03-20T13:42:42.137Z,2.92
2023-03-20T14:49:16.864Z,3.25
2023-03-20T14:54:30.497Z,2.38
2023-03-20T14:59:36.152Z,3.53
2023-03-20T15:04:43.383Z,4.32
2023-03-20T15:09:53.127Z,3.42
2023-03-20T15:15:44.807Z,2.92
2023-03-20T15:20:24.103Z,4.57
2023-03-20T15:25:46.922Z,4.65
2023-03-20T15:30:54.155Z,2.38
2023-03-20T15:35:59.288Z,3.38
2023-03-20T15:41:14.864Z,2.40
2023-03-20T15:46:22.222Z,3.33
2023-03-20T15:51:28.945Z,3.75
2023-03-20T15:56:49.837Z,3.42
2023-03-20T16:01:58.586Z,3.85
2023-03-20T16:07:04.239Z,3.03
2023-03-20T16:12:19.926Z,3.10
2023-03-20T16:17:29.084Z,3.60
2023-03-20T16:22:35.063Z,3.00
2023-03-20T16:27:52.824Z,3.15
2023-03-20T16:33:01.808Z,3.85
2023-03-20T16:38:21.085Z,3.22
2023-03-20T16:43:34.000Z,3.10
2023-03-20T16:48:40.194Z,2.83
2023-03-20T16:53:51.419Z,3.85
2023-03-20T16:58:59.512Z,7.60
2023-03-20T17:04:21.349Z,8.23
2023-03-20T17:09:30.720Z,5.05
2023-03-20T17:14:35.441Z,6.13
2023-03-20T17:19:45.675Z,8.55
2023-03-20T17:24:52.999Z,4.80
2023-03-20T17:29:57.616Z,5.18
2023-03-20T17:35:03.456Z,6.70
2023-03-20T17:40:08.833Z,6.72
2023-03-20T17:45:17.976Z,6.25
2023-03-20T17:50:29.806Z,4.82
2023-03-20T17:55:46.129Z,9.93
2023-03-20T18:00:58.081Z,5.13
2023-03-20T18:06:07.329Z,2.33
2023-03-20T18:11:10.742Z,4.32
2023-03-20T18:16:19.894Z,5.15
2023-03-20T18:21:24.413Z,6.38
2023-03-20T18:26:28.714Z,4.10
2023-03-20T18:31:33.449Z,6.70
2023-03-20T18:36:43.760Z,10.07
2023-03-20T18:41:48.543Z,12.65
2023-03-20T18:46:54.341Z,11.10
2023-03-20T18:52:03.307Z,11.23
2023-03-20T18:57:16.733Z,9.85
2023-03-20T19:02:30.794Z,7.63
2023-03-20T19:07:35.459Z,6.57
2023-03-20T20:02:11.813Z,10.88
2023-03-20T20:07:56.208Z,9.32
2023-03-20T20:12:40.524Z,9.50
2023-03-20T20:17:48.240Z,8.63
2023-03-20T20:22:56.416Z,12.93
2023-03-20T20:28:17.306Z,12.82
2023-03-20T20:33:36.975Z,9.13
2023-03-20T20:38:50.719Z,7.03
2023-03-20T20:44:15.198Z,10.37
2023-03-20T20:49:35.868Z,8.73
2023-03-20T20:54:43.185Z,11.32
2023-03-20T20:59:46.362Z,9.50
2023-03-20T21:04:52.784Z,9.00
2023-03-20T21:09:55.943Z,9.77
2023-03-20T21:15:09.739Z,8.18
2023-03-20T21:20:22.512Z,9.20
2023-03-20T21:25:39.188Z,8.48
2023-03-20T21:31:12.546Z,8.95
2023-03-20T21:36:53.954Z,9.32
2023-03-20T23:41:57.337Z,11.80
2023-03-20T23:46:52.559Z,12.02
2023-03-20T23:51:55.725Z,13.07
2023-03-20T23:57:09.154Z,11.27
